createdAt,value
2023-02-27T00:02:23.786Z,11.46
2023-02-27T00:04:50.466Z,11.11
2023-02-27T00:07:17.798Z,10.80
2023-02-27T00:09:44.364Z,10.35
2023-02-27T00:12:12.021Z,9.48
2023-02-27T00:14:38.568Z,9.20
2023-02-27T00:17:05.112Z,9.00
2023-02-27T00:19:31.602Z,8.53
2023-02-27T00:21:58.130Z,9.13
2023-02-27T00:24:24.714Z,8.53
2023-02-27T00:26:51.337Z,8.76
2023-02-27T00:29:17.833Z,8.69
2023-02-27T00:31:44.485Z,8.14
2023-02-27T00:34:11.514Z,8.30
2023-02-27T00:36:38.053Z,8.00
2023-02-27T00:39:04.656Z,7.94
2023-02-27T00:41:31.224Z,8.20
2023-02-27T00:43:57.796Z,8.39
2023-02-27T00:46:24.339Z,7.78
2023-02-27T00:48:51.094Z,7.30
2023-02-27T00:51:20.025Z,7.60
2023-02-27T00:53:46.640Z,7.50
2023-02-27T00:56:13.203Z,7.14
2023-02-27T00:58:39.728Z,7.49
2023-02-27T01:01:06.386Z,7.52
2023-02-27T01:03:32.976Z,7.32
2023-02-27T01:05:59.451Z,7.62
2023-02-27T01:08:26.113Z,7.46
2023-02-27T01:10:55.632Z,7.83
2023-02-27T01:13:22.373Z,7.63
2023-02-27T01:15:49.202Z,7.67
2023-02-27T01:18:15.761Z,7.39
2023-02-27T01:20:42.312Z,7.22
2023-02-27T01:23:08.997Z,7.50
2023-02-27T01:25:35.529Z,7.22
2023-02-27T01:28:02.105Z,6.60
2023-02-27T01:30:30.000Z,7.16
2023-02-27T01:32:56.616Z,6.64
2023-02-27T01:35:23.111Z,6.48
2023-02-27T01:37:49.909Z,6.41
2023-02-27T01:40:18.849Z,6.85
2023-02-27T01:42:47.080Z,6.64
2023-02-27T01:45:30.375Z,6.88
2023-02-27T01:48:09.248Z,6.49
2023-02-27T01:50:43.307Z,6.47
2023-02-27T01:53:11.355Z,6.41
2023-02-27T01:55:39.329Z,6.73
2023-02-27T01:58:10.453Z,6.57
2023-02-27T02:00:37.457Z,6.58
2023-02-27T02:03:29.207Z,6.23
2023-02-27T02:05:58.075Z,6.50
2023-02-27T02:08:30.081Z,6.18
2023-02-27T02:10:58.550Z,6.52
2023-02-27T02:13:25.826Z,6.33
2023-02-27T02:16:21.175Z,6.14
2023-02-27T02:19:03.453Z,6.44
2023-02-27T02:21:46.609Z,6.30
2023-02-27T02:25:01.559Z,6.31
2023-02-27T02:28:05.666Z,6.41
2023-02-27T02:30:56.978Z,6.11
2023-02-27T02:33:53.642Z,6.21
2023-02-27T02:36:56.413Z,6.18
2023-02-27T02:40:00.042Z,6.03
2023-02-27T02:42:55.830Z,6.16
2023-02-27T02:45:52.403Z,6.05
2023-02-27T02:48:37.122Z,6.12
2023-02-27T02:51:39.896Z,6.00
2023-02-27T02:54:31.432Z,5.80
2023-02-27T02:57:17.505Z,5.85
2023-02-27T03:00:06.257Z,5.58
2023-02-27T03:02:50.464Z,5.46
2023-02-27T03:05:31.981Z,5.37
2023-02-27T03:08:09.450Z,5.66
2023-02-27T03:10:48.928Z,4.93
2023-02-27T03:13:38.976Z,5.02
2023-02-27T03:16:11.505Z,4.95
2023-02-27T03:18:46.902Z,4.64
2023-02-27T03:21:26.680Z,4.43
2023-02-27T03:23:59.734Z,4.28
2023-02-27T03:26:34.993Z,3.91
2023-02-27T03:29:09.344Z,4.05
2023-02-27T03:31:56.892Z,3.82
2023-02-27T03:34:32.715Z,3.61
2023-02-27T03:37:10.425Z,3.69
2023-02-27T03:39:48.926Z,3.48
2023-02-27T03:42:46.076Z,3.06
2023-02-27T03:45:33.678Z,3.29
2023-02-27T03:48:01.823Z,3.17
2023-02-27T03:50:28.536Z,3.24
2023-02-27T03:52:56.418Z,3.08
2023-02-27T03:55:34.773Z,2.86
2023-02-27T03:58:03.972Z,3.10
2023-02-27T04:00:30.550Z,3.08
2023-02-27T04:03:00.549Z,3.06
2023-02-27T04:05:29.127Z,3.15
2023-02-27T04:08:08.342Z,2.93
2023-02-27T04:10:51.561Z,3.16
2023-02-27T04:13:20.791Z,2.85
2023-02-27T04:16:24.645Z,3.08
2023-02-27T04:19:09.261Z,2.85
2023-02-27T04:21:45.383Z,2.98
2023-02-27T04:24:21.365Z,3.31
2023-02-27T04:27:25.974Z,3.22
2023-02-27T04:29:56.845Z,3.23
2023-02-27T04:32:38.509Z,3.32
2023-02-27T04:35:20.158Z,3.28
2023-02-27T04:38:09.492Z,3.08
2023-02-27T04:40:47.775Z,3.44
2023-02-27T04:43:16.927Z,3.57
2023-02-27T04:45:48.174Z,3.89
2023-02-27T04:48:28.425Z,4.09
2023-02-27T04:51:07.837Z,3.70
2023-02-27T04:53:48.557Z,4.08
2023-02-27T04:56:27.107Z,3.66
2023-02-27T04:59:01.598Z,3.71
2023-02-27T05:02:16.028Z,3.86
2023-02-27T05:04:46.314Z,3.79
2023-02-27T05:07:18.837Z,3.86
2023-02-27T05:09:58.999Z,4.20
2023-02-27T05:12:33.977Z,4.17
2023-02-27T05:15:05.972Z,3.93
2023-02-27T05:17:38.463Z,3.84
2023-02-27T05:20:09.006Z,3.98
2023-02-27T05:22:53.446Z,3.95
2023-02-27T05:25:35.206Z,3.98
2023-02-27T05:28:24.309Z,3.74
2023-02-27T05:31:13.716Z,4.04
2023-02-27T05:34:00.224Z,4.03
2023-02-27T05:36:59.469Z,4.06
2023-02-27T05:39:31.403Z,3.73
2023-02-27T05:42:03.864Z,3.97
2023-02-27T05:44:39.387Z,4.22
2023-02-27T05:47:11.712Z,4.23
2023-02-27T05:49:47.872Z,4.47
2023-02-27T05:52:23.422Z,4.40
2023-02-27T05:55:18.817Z,4.34
2023-02-27T05:57:53.981Z,4.41
2023-02-27T06:00:42.302Z,4.96
2023-02-27T06:03:09.589Z,4.62
2023-02-27T06:05:39.080Z,4.89
2023-02-27T06:08:05.637Z,4.86
2023-02-27T06:10:32.465Z,4.89
2023-02-27T06:12:59.014Z,5.18
2023-02-27T06:15:25.635Z,5.70
2023-02-27T06:17:52.277Z,6.02
2023-02-27T06:20:18.871Z,7.10
2023-02-27T06:22:45.468Z,7.69
2023-02-27T06:25:12.056Z,7.94
2023-02-27T06:27:38.841Z,8.45
2023-02-27T06:30:07.357Z,8.52
2023-02-27T06:32:35.014Z,7.40
2023-02-27T06:35:01.666Z,7.04
2023-02-27T06:37:28.143Z,6.76
2023-02-27T06:39:54.894Z,6.38
2023-02-27T06:42:21.620Z,5.81
2023-02-27T06:44:48.144Z,6.05
2023-02-27T06:47:14.657Z,6.21
2023-02-27T06:49:41.923Z,6.73
2023-02-27T06:52:08.501Z,6.41
2023-02-27T06:54:35.110Z,6.37
2023-02-27T06:57:01.680Z,6.59
2023-02-27T06:59:28.251Z,6.30
2023-02-27T07:01:55.088Z,6.39
2023-02-27T07:04:21.993Z,6.55
2023-02-27T07:07:35.453Z,6.54
2023-02-27T07:09:36.193Z,6.38
2023-02-27T07:12:06.343Z,6.41
2023-02-27T07:14:32.964Z,6.66
2023-02-27T07:17:03.275Z,6.67
2023-02-27T07:19:32.180Z,6.72
2023-02-27T07:21:58.854Z,7.29
2023-02-27T07:24:25.864Z,7.04
2023-02-27T07:26:53.575Z,8.15
2023-02-27T07:29:20.152Z,9.31
2023-02-27T07:31:46.716Z,9.38
2023-02-27T07:34:14.790Z,8.48
2023-02-27T07:36:41.440Z,7.59
2023-02-27T07:39:10.459Z,6.70
2023-02-27T07:41:36.996Z,6.17
2023-02-27T07:44:03.520Z,5.49
2023-02-27T07:46:30.339Z,5.69
2023-02-27T07:48:57.089Z,7.38
2023-02-27T07:51:23.576Z,7.48
2023-02-27T07:53:50.104Z,6.95
2023-02-27T07:56:16.668Z,5.98
2023-02-27T07:58:43.219Z,6.07
2023-02-27T08:01:09.770Z,5.33
2023-02-27T08:03:36.337Z,5.28
2023-02-27T08:06:02.918Z,5.08
2023-02-27T08:08:29.950Z,5.23
2023-02-27T08:10:56.471Z,4.83
2023-02-27T08:13:42.280Z,4.53
2023-02-27T08:16:09.743Z,4.81
2023-02-27T08:18:36.561Z,4.54
2023-02-27T08:21:04.973Z,4.35
2023-02-27T08:23:32.573Z,4.15
2023-02-27T08:25:59.136Z,4.20
2023-02-27T08:28:25.901Z,4.31
2023-02-27T08:30:52.493Z,4.18
2023-02-27T08:33:20.104Z,4.00
2023-02-27T08:35:46.896Z,4.03
2023-02-27T08:38:13.449Z,4.06
2023-02-27T08:40:39.969Z,4.01
2023-02-27T08:43:06.514Z,4.22
2023-02-27T08:45:33.028Z,4.07
2023-02-27T08:47:59.596Z,4.05
2023-02-27T08:50:26.128Z,3.71
2023-02-27T08:52:52.832Z,4.02
2023-02-27T08:55:21.460Z,3.87
2023-02-27T08:57:48.037Z,3.72
2023-02-27T09:00:15.197Z,3.70
2023-02-27T09:02:41.861Z,3.82
2023-02-27T09:05:08.969Z,3.54
2023-02-27T09:07:35.933Z,4.23
2023-02-27T09:10:03.272Z,5.06
2023-02-27T09:12:30.179Z,5.98
2023-02-27T09:14:56.727Z,4.94
2023-02-27T09:17:23.279Z,4.38
2023-02-27T09:19:51.231Z,3.44
2023-02-27T09:22:18.802Z,3.38
2023-02-27T09:24:45.353Z,3.22
2023-02-27T09:27:11.924Z,3.05
2023-02-27T09:29:38.452Z,3.27
2023-02-27T09:32:05.265Z,3.35
2023-02-27T09:34:31.924Z,2.88
2023-02-27T09:37:01.915Z,2.89
2023-02-27T09:39:30.099Z,4.34
2023-02-27T09:42:05.459Z,3.43
2023-02-27T09:44:50.526Z,3.51
2023-02-27T09:47:33.848Z,3.05
2023-02-27T09:50:05.912Z,2.39
2023-02-27T09:52:37.195Z,3.22
2023-02-27T09:55:21.937Z,2.50
2023-02-27T09:58:01.493Z,2.81
2023-02-27T10:01:00.487Z,3.08
2023-02-27T10:03:50.153Z,2.38
2023-02-27T10:06:26.413Z,1.94
2023-02-27T10:09:28.470Z,1.96
2023-02-27T10:12:09.707Z,1.91
2023-02-27T10:15:09.797Z,1.53
2023-02-27T10:17:43.311Z,1.55
2023-02-27T10:20:33.627Z,1.45
2023-02-27T10:23:11.631Z,1.90
2023-02-27T10:25:45.574Z,1.39
2023-02-27T10:28:15.995Z,1.74
2023-02-27T10:30:49.405Z,1.59
2023-02-27T10:33:32.351Z,1.59
2023-02-27T10:36:00.777Z,1.61
2023-02-27T10:38:29.307Z,1.73
2023-02-27T10:40:59.100Z,1.70
2023-02-27T10:43:26.130Z,1.79
2023-02-27T10:45:53.464Z,1.60
2023-02-27T10:48:20.724Z,1.61
2023-02-27T10:50:52.660Z,1.64
2023-02-27T10:53:25.761Z,1.59
2023-02-27T10:56:10.620Z,1.36
2023-02-27T10:58:38.072Z,1.34
2023-02-27T11:01:08.095Z,1.28
2023-02-27T11:03:43.646Z,1.38
2023-02-27T11:06:26.423Z,1.50
2023-02-27T11:09:13.410Z,1.46
2023-02-27T11:11:40.174Z,1.45
2023-02-27T11:14:47.931Z,1.62
2023-02-27T11:17:29.455Z,1.60
2023-02-27T11:19:57.860Z,1.64
2023-02-27T11:22:30.457Z,1.59
2023-02-27T11:25:19.512Z,1.84
2023-02-27T11:27:47.256Z,1.33
2023-02-27T11:30:29.085Z,1.57
2023-02-27T11:32:59.008Z,1.24
2023-02-27T11:35:33.083Z,1.16
2023-02-27T11:38:07.174Z,1.37
2023-02-27T11:40:39.382Z,1.02
2023-02-27T11:43:16.615Z,1.12
2023-02-27T11:46:10.351Z,1.11
2023-02-27T11:48:47.646Z,1.24
2023-02-27T11:51:35.488Z,1.07
2023-02-27T11:54:27.017Z,1.18
2023-02-27T11:56:59.981Z,1.52
2023-02-27T11:59:39.300Z,1.47
2023-02-27T12:02:34.059Z,1.51
2023-02-27T12:05:13.883Z,1.26
2023-02-27T12:08:02.427Z,1.43
2023-02-27T12:10:39.657Z,1.21
2023-02-27T12:13:23.140Z,1.13
2023-02-27T12:16:16.761Z,1.21
2023-02-27T12:19:12.430Z,1.15
2023-02-27T12:21:49.578Z,1.00
2023-02-27T12:24:25.812Z,1.10
2023-02-27T12:27:10.057Z,1.00
2023-02-27T12:29:43.717Z,1.23
2023-02-27T12:32:37.970Z,1.14
2023-02-27T12:35:13.852Z,1.19
2023-02-27T12:37:40.349Z,1.26
2023-02-27T12:40:10.740Z,1.33
2023-02-27T12:43:12.070Z,1.39
2023-02-27T12:46:05.779Z,1.45
2023-02-27T12:48:55.947Z,1.40
2023-02-27T12:51:38.093Z,1.58
2023-02-27T12:54:26.875Z,1.45
2023-02-27T12:57:15.147Z,1.40
2023-02-27T13:00:02.126Z,1.23
2023-02-27T13:02:39.379Z,1.54
2023-02-27T13:05:34.574Z,1.53
2023-02-27T13:08:28.087Z,1.53
2023-02-27T13:11:01.926Z,1.49
2023-02-27T13:13:37.555Z,1.61
2023-02-27T13:16:17.566Z,1.68
2023-02-27T13:18:57.027Z,1.69
2023-02-27T13:21:43.813Z,1.90
2023-02-27T13:24:27.501Z,2.57
2023-02-27T13:26:58.397Z,1.78
2023-02-27T13:29:49.299Z,1.81
2023-02-27T13:32:43.508Z,1.99
2023-02-27T13:35:28.540Z,3.30
2023-02-27T13:38:00.004Z,2.85
2023-02-27T13:40:34.866Z,3.27
2023-02-27T13:43:06.383Z,2.28
2023-02-27T13:45:47.062Z,2.72
2023-02-27T13:48:42.821Z,4.37
2023-02-27T13:51:32.676Z,2.53
2023-02-27T13:54:14.771Z,2.50
2023-02-27T13:56:59.382Z,2.20
2023-02-27T13:59:39.581Z,4.06
2023-02-27T14:02:12.211Z,3.29
2023-02-27T14:04:52.862Z,2.31
2023-02-27T14:07:24.144Z,2.43
2023-02-27T14:10:00.157Z,3.04
2023-02-27T14:12:45.409Z,1.78
2023-02-27T14:15:18.709Z,1.93
2023-02-27T14:17:47.640Z,1.75
2023-02-27T14:20:16.857Z,1.75
2023-02-27T14:23:08.816Z,1.68
2023-02-27T14:25:42.217Z,1.73
2023-02-27T14:28:33.999Z,1.88
2023-02-27T14:31:03.337Z,3.40
2023-02-27T14:33:53.913Z,2.64
2023-02-27T14:36:27.847Z,4.84
2023-02-27T14:38:57.491Z,4.12
2023-02-27T14:41:42.026Z,3.97
2023-02-27T14:44:20.230Z,4.22
2023-02-27T14:46:53.541Z,4.89
2023-02-27T14:49:25.016Z,4.83
2023-02-27T14:51:53.075Z,4.86
2023-02-27T14:54:25.363Z,4.92
2023-02-27T14:56:54.764Z,4.76
2023-02-27T14:59:30.000Z,4.47
2023-02-27T15:02:01.986Z,4.31
2023-02-27T15:04:32.571Z,3.57
2023-02-27T15:07:00.734Z,3.07
2023-02-27T15:09:42.801Z,3.00
2023-02-27T15:12:22.497Z,3.02
2023-02-27T15:14:59.533Z,4.03
2023-02-27T15:17:36.779Z,4.26
2023-02-27T15:20:24.623Z,3.86
2023-02-27T15:22:51.513Z,4.20
2023-02-27T15:25:35.015Z,4.99
2023-02-27T15:28:06.729Z,4.92
2023-02-27T15:30:33.905Z,5.10
2023-02-27T15:33:02.782Z,4.61
2023-02-27T15:35:37.656Z,5.55
2023-02-27T15:38:04.589Z,5.85
2023-02-27T15:40:34.128Z,6.39
2023-02-27T15:43:01.768Z,4.72
2023-02-27T15:45:35.217Z,4.28
2023-02-27T15:48:03.625Z,4.29
2023-02-27T15:50:37.815Z,3.33
2023-02-27T15:53:07.364Z,3.35
2023-02-27T15:55:38.201Z,3.31
2023-02-27T15:58:19.884Z,5.42
2023-02-27T16:00:47.121Z,5.41
2023-02-27T16:03:20.970Z,3.77
2023-02-27T16:05:53.193Z,3.56
2023-02-27T16:08:21.247Z,4.09
2023-02-27T16:10:49.623Z,4.20
2023-02-27T16:13:25.066Z,3.68
2023-02-27T16:16:23.900Z,3.24
2023-02-27T16:18:53.380Z,2.47
2023-02-27T16:21:22.828Z,2.42
2023-02-27T16:23:49.911Z,2.57
2023-02-27T16:26:30.606Z,2.77
2023-02-27T16:29:18.543Z,2.77
2023-02-27T16:31:52.708Z,3.45
2023-02-27T16:34:45.590Z,3.27
2023-02-27T16:37:27.230Z,3.09
2023-02-27T16:39:56.396Z,3.25
2023-02-27T16:42:23.141Z,4.28
2023-02-27T16:44:49.760Z,3.07
2023-02-27T16:47:16.353Z,2.77
2023-02-27T16:49:44.314Z,3.72
2023-02-27T16:52:12.106Z,3.41
2023-02-27T16:54:38.757Z,3.88
2023-02-27T16:57:05.320Z,3.13
2023-02-27T16:59:36.423Z,3.89
2023-02-27T17:02:11.016Z,5.17
2023-02-27T17:04:37.727Z,5.34
2023-02-27T17:07:06.646Z,6.11
2023-02-27T17:09:33.507Z,4.89
2023-02-27T17:12:00.213Z,4.71
2023-02-27T17:14:26.792Z,21.83
2023-02-27T17:16:53.549Z,40.38
2023-02-27T17:19:22.190Z,34.72
2023-02-27T17:21:49.030Z,20.26
2023-02-27T17:24:15.633Z,15.78
2023-02-27T17:26:42.206Z,16.59
2023-02-27T17:29:09.640Z,14.79
2023-02-27T17:31:36.705Z,14.50
2023-02-27T17:34:05.193Z,12.91
2023-02-27T17:36:31.947Z,11.80
2023-02-27T17:39:03.053Z,10.46
2023-02-27T17:41:31.951Z,10.48
2023-02-27T17:44:01.525Z,12.18
2023-02-27T17:46:30.252Z,11.67
2023-02-27T17:49:00.471Z,10.66
2023-02-27T17:51:29.896Z,8.61
2023-02-27T17:53:57.535Z,8.45
2023-02-27T17:56:24.211Z,8.21
2023-02-27T17:58:51.321Z,11.09
2023-02-27T18:01:22.706Z,12.81
2023-02-27T18:03:50.160Z,15.75
2023-02-27T18:06:18.215Z,15.76
2023-02-27T18:08:45.201Z,12.53
2023-02-27T18:11:15.238Z,10.69
2023-02-27T18:13:43.040Z,12.10
2023-02-27T18:16:10.927Z,12.30
2023-02-27T18:18:39.532Z,11.55
2023-02-27T18:21:22.701Z,10.45
2023-02-27T18:23:51.490Z,8.88
2023-02-27T18:26:32.414Z,8.28
2023-02-27T18:29:03.256Z,7.93
2023-02-27T18:31:39.187Z,8.13
2023-02-27T18:34:07.174Z,8.13
2023-02-27T18:36:35.054Z,8.82
2023-02-27T18:39:01.823Z,19.76
2023-02-27T18:41:29.242Z,35.34
2023-02-27T18:43:56.078Z,32.03
2023-02-27T18:46:22.756Z,28.17
2023-02-27T18:48:49.880Z,27.33
2023-02-27T18:51:18.288Z,25.72
2023-02-27T18:53:48.123Z,20.28
2023-02-27T18:56:17.269Z,17.13
2023-02-27T18:58:43.853Z,18.16
2023-02-27T19:01:39.096Z,19.18
2023-02-27T19:04:09.727Z,19.44
2023-02-27T19:06:42.244Z,16.87
2023-02-27T19:09:12.582Z,15.27
2023-02-27T19:11:39.683Z,14.38
2023-02-27T19:14:09.091Z,13.26
2023-02-27T19:16:35.957Z,11.80
2023-02-27T19:19:07.533Z,9.93
2023-02-27T19:21:34.236Z,8.85
2023-02-27T19:24:00.938Z,7.33
2023-02-27T19:26:28.125Z,6.88
2023-02-27T19:28:56.054Z,7.07
2023-02-27T19:31:24.362Z,6.34
2023-02-27T19:33:51.355Z,7.73
2023-02-27T19:36:20.854Z,9.69
2023-02-27T19:38:48.078Z,12.86
2023-02-27T19:41:19.243Z,16.80
2023-02-27T19:43:47.220Z,12.43
2023-02-27T19:46:17.027Z,10.50
2023-02-27T19:48:45.164Z,7.51
2023-02-27T19:51:14.948Z,7.17
2023-02-27T19:53:45.218Z,7.36
2023-02-27T19:56:15.394Z,7.84
2023-02-27T19:58:42.284Z,6.57
2023-02-27T20:01:10.062Z,6.32
2023-02-27T20:03:38.037Z,7.09
2023-02-27T20:06:06.441Z,7.85
2023-02-27T20:08:34.034Z,8.60
2023-02-27T20:11:03.092Z,9.25
2023-02-27T20:13:30.802Z,10.04
2023-02-27T20:16:09.271Z,9.49
2023-02-27T20:18:36.724Z,10.23
2023-02-27T20:21:10.609Z,10.37
2023-02-27T20:23:40.293Z,10.07
2023-02-27T20:26:27.090Z,10.72
2023-02-27T20:28:58.326Z,12.80
2023-02-27T20:31:28.296Z,17.81
2023-02-27T20:33:55.215Z,18.06
2023-02-27T20:36:21.844Z,17.31
2023-02-27T20:38:48.453Z,14.07
2023-02-27T20:41:18.736Z,12.15
2023-02-27T20:43:46.188Z,11.90
2023-02-27T20:46:16.320Z,11.98
2023-02-27T20:48:43.667Z,12.98
2023-02-27T20:51:13.797Z,12.87
2023-02-27T20:53:42.922Z,12.39
2023-02-27T20:56:11.081Z,12.16
2023-02-27T20:58:39.054Z,11.66
2023-02-27T21:01:11.140Z,12.07
2023-02-27T21:03:39.682Z,12.73
2023-02-27T21:06:09.177Z,14.03
2023-02-27T21:08:36.830Z,13.94
2023-02-27T21:11:09.437Z,13.54
2023-02-27T21:13:36.487Z,12.47
2023-02-27T21:16:04.771Z,13.21
2023-02-27T21:18:31.702Z,13.29
2023-02-27T21:21:03.651Z,12.26
2023-02-27T21:23:30.275Z,12.41
2023-02-27T21:25:56.881Z,11.46
2023-02-27T21:28:23.623Z,11.37
2023-02-27T21:30:54.429Z,10.90
2023-02-27T21:33:22.636Z,9.77
2023-02-27T21:35:49.503Z,9.20
2023-02-27T21:38:16.535Z,9.03
2023-02-27T21:40:43.177Z,8.36
2023-02-27T21:43:09.765Z,8.09
2023-02-27T21:45:41.411Z,7.96
2023-02-27T21:48:08.254Z,7.40
2023-02-27T21:50:35.894Z,7.78
2023-02-27T21:53:02.873Z,8.24
2023-02-27T21:55:29.453Z,8.23
2023-02-27T21:57:56.017Z,8.43
2023-02-27T22:00:26.399Z,8.26
2023-02-27T22:02:53.606Z,8.27
2023-02-27T22:05:20.822Z,8.22
2023-02-27T22:07:47.662Z,8.47
2023-02-27T22:10:14.191Z,8.11
2023-02-27T22:12:40.758Z,7.98
2023-02-27T22:15:07.862Z,7.74
2023-02-27T22:17:34.373Z,7.79
2023-02-27T22:20:00.881Z,7.35
2023-02-27T22:22:27.379Z,7.36
2023-02-27T22:24:53.955Z,7.41
2023-02-27T22:27:20.504Z,7.11
2023-02-27T22:29:47.008Z,7.23
2023-02-27T22:32:14.081Z,7.16
2023-02-27T22:34:40.606Z,7.73
2023-02-27T22:37:07.144Z,7.37
2023-02-27T22:39:33.746Z,6.90
2023-02-27T22:42:00.304Z,7.41
2023-02-27T22:44:26.858Z,7.21
2023-02-27T22:46:55.775Z,7.37
2023-02-27T22:49:23.824Z,7.32
2023-02-27T22:51:51.924Z,7.18
2023-02-27T22:54:20.993Z,7.04
2023-02-27T22:56:53.547Z,7.16
2023-02-27T22:59:21.423Z,7.18
2023-02-27T23:01:48.873Z,6.90
2023-02-27T23:04:17.071Z,6.64
2023-02-27T23:06:44.448Z,7.12
2023-02-27T23:09:15.224Z,7.33
2023-02-27T23:11:42.181Z,6.96
2023-02-27T23:14:09.464Z,7.08
2023-02-27T23:16:36.155Z,7.27
2023-02-27T23:19:03.651Z,7.29
2023-02-27T23:21:34.508Z,7.10
2023-02-27T23:24:06.133Z,6.86
2023-02-27T23:26:35.722Z,7.33
2023-02-27T23:29:02.288Z,6.76
2023-02-27T23:31:29.156Z,7.24
2023-02-27T23:33:55.879Z,7.18
2023-02-27T23:36:22.373Z,7.35
2023-02-27T23:38:49.048Z,7.67
2023-02-27T23:41:17.459Z,7.83
2023-02-27T23:44:03.937Z,7.81
2023-02-27T23:46:31.002Z,7.84
2023-02-27T23:48:59.300Z,7.98
2023-02-27T23:51:28.367Z,8.33
2023-02-27T23:53:56.298Z,7.64
2023-02-27T23:56:26.363Z,7.69
2023-02-27T23:59:02.385Z,8.05
